sensor_id;sensor_type;location;lat;lon;timestamp;P1;durP1;ratioP1;P2;durP2;ratioP2
4583;SDS011;2304;47.606;12.186;2023-11-19T00:00:57;7.70;;;5.43;;
4583;SDS011;2304;47.606;12.186;2023-11-19T00:05:58;5.97;;;4.17;;
4583;SDS011;2304;47.606;12.186;2023-11-19T00:11:00;7.97;;;5.40;;
4583;SDS011;2304;47.606;12.186;2023-11-19T00:16:05;5.03;;;3.90;;
4583;SDS011;2304;47.606;12.186;2023-11-19T00:21:09;6.40;;;4.37;;
4583;SDS011;2304;47.606;12.186;2023-11-19T00:26:11;6.37;;;3.97;;
4583;SDS011;2304;47.606;12.186;2023-11-19T00:31:14;6.23;;;3.83;;
4583;SDS011;2304;47.606;12.186;2023-11-19T00:36:16;6.23;;;4.30;;
4583;SDS011;2304;47.606;12.186;2023-11-19T00:41:18;6.60;;;5.27;;
4583;SDS011;2304;47.606;12.186;2023-11-19T00:46:22;6.40;;;4.83;;
4583;SDS011;2304;47.606;12.186;2023-11-19T00:51:23;6.57;;;4.97;;
4583;SDS011;2304;47.606;12.186;2023-11-19T00:56:26;5.90;;;4.73;;
4583;SDS011;2304;47.606;12.186;2023-11-19T01:01:29;7.10;;;4.83;;
4583;SDS011;2304;47.606;12.186;2023-11-19T01:06:31;7.63;;;5.57;;
4583;SDS011;2304;47.606;12.186;2023-11-19T01:11:33;8.73;;;4.60;;
4583;SDS011;2304;47.606;12.186;2023-11-19T01:16:37;5.50;;;4.50;;
4583;SDS011;2304;47.606;12.186;2023-11-19T01:21:39;5.30;;;3.93;;
4583;SDS011;2304;47.606;12.186;2023-11-19T01:26:41;7.40;;;4.20;;
4583;SDS011;2304;47.606;12.186;2023-11-19T01:31:46;8.50;;;3.90;;
4583;SDS011;2304;47.606;12.186;2023-11-19T01:36:48;3.50;;;2.90;;
4583;SDS011;2304;47.606;12.186;2023-11-19T01:41:50;6.10;;;4.53;;
4583;SDS011;2304;47.606;12.186;2023-11-19T01:46:53;4.80;;;3.87;;
4583;SDS011;2304;47.606;12.186;2023-11-19T01:51:55;5.50;;;3.37;;
4583;SDS011;2304;47.606;12.186;2023-11-19T01:56:59;5.07;;;3.47;;
4583;SDS011;2304;47.606;12.186;2023-11-19T02:02:02;4.30;;;3.40;;
4583;SDS011;2304;47.606;12.186;2023-11-19T02:07:05;4.53;;;3.13;;
4583;SDS011;2304;47.606;12.186;2023-11-19T02:12:08;4.50;;;2.87;;
4583;SDS011;2304;47.606;12.186;2023-11-19T02:17:26;6.27;;;2.73;;
4583;SDS011;2304;47.606;12.186;2023-11-19T02:22:28;3.57;;;2.37;;
4583;SDS011;2304;47.606;12.186;2023-11-19T02:32:41;4.13;;;2.63;;
4583;SDS011;2304;47.606;12.186;2023-11-19T02:37:43;5.37;;;2.80;;
4583;SDS011;2304;47.606;12.186;2023-11-19T02:42:47;3.93;;;2.73;;
4583;SDS011;2304;47.606;12.186;2023-11-19T02:47:49;4.17;;;2.70;;
4583;SDS011;2304;47.606;12.186;2023-11-19T02:52:51;4.50;;;3.07;;
4583;SDS011;2304;47.606;12.186;2023-11-19T02:57:57;4.60;;;3.17;;
4583;SDS011;2304;47.606;12.186;2023-11-19T03:03:00;4.30;;;3.43;;
4583;SDS011;2304;47.606;12.186;2023-11-19T03:08:10;4.40;;;3.50;;
4583;SDS011;2304;47.606;12.186;2023-11-19T03:13:13;3.87;;;3.07;;
4583;SDS011;2304;47.606;12.186;2023-11-19T03:18:17;3.83;;;2.50;;
4583;SDS011;2304;47.606;12.186;2023-11-19T03:23:18;5.13;;;2.90;;
4583;SDS011;2304;47.606;12.186;2023-11-19T03:28:22;3.50;;;2.60;;
4583;SDS011;2304;47.606;12.186;2023-11-19T03:33:23;3.53;;;2.47;;
4583;SDS011;2304;47.606;12.186;2023-11-19T03:38:25;3.33;;;2.37;;
4583;SDS011;2304;47.606;12.186;2023-11-19T03:43:29;3.87;;;2.50;;
4583;SDS011;2304;47.606;12.186;2023-11-19T03:48:33;4.13;;;2.83;;
4583;SDS011;2304;47.606;12.186;2023-11-19T03:53:35;3.30;;;2.53;;
4583;SDS011;2304;47.606;12.186;2023-11-19T03:58:38;3.60;;;2.73;;
4583;SDS011;2304;47.606;12.186;2023-11-19T04:03:40;3.53;;;2.50;;
4583;SDS011;2304;47.606;12.186;2023-11-19T04:08:42;5.80;;;2.30;;
4583;SDS011;2304;47.606;12.186;2023-11-19T04:13:45;3.50;;;2.83;;
4583;SDS011;2304;47.606;12.186;2023-11-19T04:18:47;3.27;;;2.33;;
4583;SDS011;2304;47.606;12.186;2023-11-19T04:23:49;4.53;;;2.20;;
4583;SDS011;2304;47.606;12.186;2023-11-19T04:28:52;3.20;;;2.00;;
4583;SDS011;2304;47.606;12.186;2023-11-19T04:33:54;2.40;;;1.77;;
4583;SDS011;2304;47.606;12.186;2023-11-19T04:38:56;4.83;;;2.80;;
4583;SDS011;2304;47.606;12.186;2023-11-19T04:44:01;3.40;;;2.60;;
4583;SDS011;2304;47.606;12.186;2023-11-19T04:49:02;4.03;;;2.63;;
4583;SDS011;2304;47.606;12.186;2023-11-19T04:54:04;4.63;;;3.40;;
4583;SDS011;2304;47.606;12.186;2023-11-19T04:59:08;4.80;;;3.60;;
4583;SDS011;2304;47.606;12.186;2023-11-19T05:04:10;6.37;;;4.10;;
4583;SDS011;2304;47.606;12.186;2023-11-19T05:09:11;5.37;;;3.40;;
4583;SDS011;2304;47.606;12.186;2023-11-19T05:14:15;5.80;;;3.93;;
4583;SDS011;2304;47.606;12.186;2023-11-19T05:19:18;4.80;;;3.67;;
4583;SDS011;2304;47.606;12.186;2023-11-19T05:24:20;6.50;;;4.50;;
4583;SDS011;2304;47.606;12.186;2023-11-19T05:29:23;5.33;;;4.07;;
4583;SDS011;2304;47.606;12.186;2023-11-19T05:34:27;4.97;;;4.17;;
4583;SDS011;2304;47.606;12.186;2023-11-19T05:39:28;6.10;;;4.40;;
4583;SDS011;2304;47.606;12.186;2023-11-19T05:44:32;4.30;;;3.77;;
4583;SDS011;2304;47.606;12.186;2023-11-19T05:49:33;6.03;;;4.40;;
4583;SDS011;2304;47.606;12.186;2023-11-19T05:54:35;5.30;;;3.57;;
4583;SDS011;2304;47.606;12.186;2023-11-19T05:59:39;4.70;;;3.23;;
4583;SDS011;2304;47.606;12.186;2023-11-19T06:04:41;4.83;;;2.80;;
4583;SDS011;2304;47.606;12.186;2023-11-19T06:09:44;8.73;;;3.87;;
4583;SDS011;2304;47.606;12.186;2023-11-19T06:14:47;6.70;;;4.20;;
4583;SDS011;2304;47.606;12.186;2023-11-19T06:19:49;7.43;;;4.47;;
4583;SDS011;2304;47.606;12.186;2023-11-19T06:24:51;6.17;;;4.33;;
4583;SDS011;2304;47.606;12.186;2023-11-19T06:29:54;5.03;;;3.13;;
4583;SDS011;2304;47.606;12.186;2023-11-19T06:34:56;5.60;;;4.10;;
4583;SDS011;2304;47.606;12.186;2023-11-19T06:39:58;4.97;;;4.20;;
4583;SDS011;2304;47.606;12.186;2023-11-19T06:45:01;6.13;;;4.20;;
4583;SDS011;2304;47.606;12.186;2023-11-19T06:50:03;6.23;;;4.70;;
4583;SDS011;2304;47.606;12.186;2023-11-19T06:55:07;5.50;;;4.60;;
4583;SDS011;2304;47.606;12.186;2023-11-19T07:00:11;6.03;;;4.63;;
4583;SDS011;2304;47.606;12.186;2023-11-19T07:05:14;6.10;;;5.30;;
4583;SDS011;2304;47.606;12.186;2023-11-19T07:10:15;6.00;;;5.07;;
4583;SDS011;2304;47.606;12.186;2023-11-19T07:15:18;5.27;;;4.30;;
4583;SDS011;2304;47.606;12.186;2023-11-19T07:20:20;5.93;;;4.80;;
4583;SDS011;2304;47.606;12.186;2023-11-19T07:25:22;4.37;;;3.60;;
4583;SDS011;2304;47.606;12.186;2023-11-19T07:30:26;6.90;;;3.57;;
4583;SDS011;2304;47.606;12.186;2023-11-19T07:35:28;4.30;;;2.37;;
4583;SDS011;2304;47.606;12.186;2023-11-19T07:40:31;4.93;;;3.67;;
4583;SDS011;2304;47.606;12.186;2023-11-19T07:45:34;6.20;;;3.30;;
4583;SDS011;2304;47.606;12.186;2023-11-19T07:50:36;4.23;;;3.20;;
4583;SDS011;2304;47.606;12.186;2023-11-19T07:55:38;6.03;;;4.30;;
4583;SDS011;2304;47.606;12.186;2023-11-19T08:00:41;5.53;;;3.93;;
4583;SDS011;2304;47.606;12.186;2023-11-19T08:05:43;5.03;;;3.87;;
4583;SDS011;2304;47.606;12.186;2023-11-19T08:10:45;5.80;;;4.23;;
4583;SDS011;2304;47.606;12.186;2023-11-19T08:15:49;5.77;;;4.00;;
4583;SDS011;2304;47.606;12.186;2023-11-19T08:20:51;5.53;;;4.20;;
4583;SDS011;2304;47.606;12.186;2023-11-19T08:25:53;5.27;;;3.80;;
4583;SDS011;2304;47.606;12.186;2023-11-19T08:30:57;5.50;;;4.17;;
4583;SDS011;2304;47.606;12.186;2023-11-19T08:35:58;5.70;;;3.57;;
4583;SDS011;2304;47.606;12.186;2023-11-19T08:41:00;4.47;;;3.33;;
4583;SDS011;2304;47.606;12.186;2023-11-19T08:46:04;4.30;;;3.47;;
4583;SDS011;2304;47.606;12.186;2023-11-19T08:51:11;5.23;;;3.20;;
4583;SDS011;2304;47.606;12.186;2023-11-19T08:56:13;4.40;;;3.27;;
4583;SDS011;2304;47.606;12.186;2023-11-19T09:01:16;7.83;;;3.50;;
4583;SDS011;2304;47.606;12.186;2023-11-19T09:06:18;6.60;;;4.13;;
4583;SDS011;2304;47.606;12.186;2023-11-19T09:11:20;4.90;;;3.80;;
4583;SDS011;2304;47.606;12.186;2023-11-19T09:16:23;5.67;;;3.90;;
4583;SDS011;2304;47.606;12.186;2023-11-19T09:21:25;6.17;;;4.17;;
4583;SDS011;2304;47.606;12.186;2023-11-19T09:26:27;4.60;;;3.50;;
4583;SDS011;2304;47.606;12.186;2023-11-19T09:31:30;7.67;;;4.93;;
4583;SDS011;2304;47.606;12.186;2023-11-19T09:36:32;8.83;;;5.47;;
4583;SDS011;2304;47.606;12.186;2023-11-19T09:41:34;7.97;;;4.70;;
4583;SDS011;2304;47.606;12.186;2023-11-19T09:46:38;4.83;;;3.60;;
4583;SDS011;2304;47.606;12.186;2023-11-19T09:51:42;6.20;;;4.37;;
4583;SDS011;2304;47.606;12.186;2023-11-19T09:56:44;8.13;;;5.20;;
4583;SDS011;2304;47.606;12.186;2023-11-19T10:01:48;8.83;;;5.70;;
4583;SDS011;2304;47.606;12.186;2023-11-19T10:06:50;12.00;;;7.83;;
4583;SDS011;2304;47.606;12.186;2023-11-19T10:11:53;7.27;;;6.03;;
4583;SDS011;2304;47.606;12.186;2023-11-19T10:16:56;5.60;;;4.53;;
4583;SDS011;2304;47.606;12.186;2023-11-19T10:22:01;7.57;;;5.13;;
4583;SDS011;2304;47.606;12.186;2023-11-19T10:27:06;5.40;;;4.53;;
4583;SDS011;2304;47.606;12.186;2023-11-19T10:32:10;6.30;;;4.90;;
4583;SDS011;2304;47.606;12.186;2023-11-19T10:37:26;7.90;;;5.23;;
4583;SDS011;2304;47.606;12.186;2023-11-19T10:42:30;9.07;;;5.40;;
4583;SDS011;2304;47.606;12.186;2023-11-19T10:47:33;8.67;;;5.60;;
4583;SDS011;2304;47.606;12.186;2023-11-19T10:52:37;10.50;;;5.37;;
4583;SDS011;2304;47.606;12.186;2023-11-19T10:57:39;9.23;;;4.33;;
4583;SDS011;2304;47.606;12.186;2023-11-19T11:02:46;4.53;;;3.47;;
4583;SDS011;2304;47.606;12.186;2023-11-19T11:07:51;6.17;;;5.10;;
4583;SDS011;2304;47.606;12.186;2023-11-19T11:12:56;7.47;;;5.57;;
4583;SDS011;2304;47.606;12.186;2023-11-19T11:18:03;8.23;;;4.90;;
4583;SDS011;2304;47.606;12.186;2023-11-19T11:23:14;6.20;;;4.33;;
4583;SDS011;2304;47.606;12.186;2023-11-19T11:28:48;5.50;;;4.27;;
4583;SDS011;2304;47.606;12.186;2023-11-19T11:34:19;3.93;;;3.30;;
4583;SDS011;2304;47.606;12.186;2023-11-19T11:39:40;5.20;;;4.30;;
4583;SDS011;2304;47.606;12.186;2023-11-19T11:44:57;6.80;;;5.00;;
4583;SDS011;2304;47.606;12.186;2023-11-19T11:50:05;16.40;;;7.77;;
4583;SDS011;2304;47.606;12.186;2023-11-19T11:55:09;16.03;;;8.43;;
4583;SDS011;2304;47.606;12.186;2023-11-19T12:00:12;5.60;;;4.30;;
4583;SDS011;2304;47.606;12.186;2023-11-19T12:05:24;9.60;;;5.97;;
4583;SDS011;2304;47.606;12.186;2023-11-19T12:10:26;72.83;;;31.07;;
4583;SDS011;2304;47.606;12.186;2023-11-19T12:15:31;93.10;;;40.00;;
4583;SDS011;2304;47.606;12.186;2023-11-19T12:20:34;12.60;;;7.73;;
4583;SDS011;2304;47.606;12.186;2023-11-19T12:25:37;16.47;;;9.47;;
4583;SDS011;2304;47.606;12.186;2023-11-19T12:30:39;9.10;;;7.13;;
4583;SDS011;2304;47.606;12.186;2023-11-19T12:35:43;14.30;;;8.27;;
4583;SDS011;2304;47.606;12.186;2023-11-19T12:40:46;14.40;;;9.17;;
4583;SDS011;2304;47.606;12.186;2023-11-19T12:45:48;12.60;;;8.77;;
4583;SDS011;2304;47.606;12.186;2023-11-19T12:50:51;15.87;;;10.03;;
4583;SDS011;2304;47.606;12.186;2023-11-19T12:55:54;21.33;;;11.20;;
4583;SDS011;2304;47.606;12.186;2023-11-19T13:01:00;16.50;;;9.83;;
4583;SDS011;2304;47.606;12.186;2023-11-19T13:06:05;15.73;;;8.73;;
4583;SDS011;2304;47.606;12.186;2023-11-19T13:11:08;13.53;;;7.93;;
4583;SDS011;2304;47.606;12.186;2023-11-19T13:16:10;11.60;;;7.90;;
4583;SDS011;2304;47.606;12.186;2023-11-19T13:21:13;23.37;;;15.03;;
4583;SDS011;2304;47.606;12.186;2023-11-19T13:26:15;25.63;;;13.80;;
4583;SDS011;2304;47.606;12.186;2023-11-19T13:31:17;18.23;;;14.80;;
4583;SDS011;2304;47.606;12.186;2023-11-19T13:36:21;12.57;;;9.00;;
4583;SDS011;2304;47.606;12.186;2023-11-19T13:41:22;15.40;;;9.70;;
4583;SDS011;2304;47.606;12.186;2023-11-19T13:46:25;11.70;;;8.17;;
4583;SDS011;2304;47.606;12.186;2023-11-19T13:51:28;9.27;;;6.73;;
4583;SDS011;2304;47.606;12.186;2023-11-19T13:56:30;9.40;;;5.30;;
4583;SDS011;2304;47.606;12.186;2023-11-19T14:01:32;13.00;;;7.63;;
4583;SDS011;2304;47.606;12.186;2023-11-19T14:06:35;14.27;;;11.30;;
4583;SDS011;2304;47.606;12.186;2023-11-19T14:11:37;13.63;;;11.10;;
4583;SDS011;2304;47.606;12.186;2023-11-19T14:16:38;12.93;;;7.70;;
4583;SDS011;2304;47.606;12.186;2023-11-19T14:21:42;14.50;;;9.70;;
4583;SDS011;2304;47.606;12.186;2023-11-19T14:26:45;34.50;;;23.13;;
4583;SDS011;2304;47.606;12.186;2023-11-19T14:31:48;42.30;;;29.33;;
4583;SDS011;2304;47.606;12.186;2023-11-19T14:36:52;14.30;;;9.40;;
4583;SDS011;2304;47.606;12.186;2023-11-19T14:41:53;12.10;;;9.00;;
4583;SDS011;2304;47.606;12.186;2023-11-19T14:46:58;12.17;;;8.57;;
4583;SDS011;2304;47.606;12.186;2023-11-19T14:52:03;14.17;;;8.10;;
4583;SDS011;2304;47.606;12.186;2023-11-19T14:57:05;10.77;;;8.20;;
4583;SDS011;2304;47.606;12.186;2023-11-19T15:02:08;14.73;;;9.90;;
4583;SDS011;2304;47.606;12.186;2023-11-19T15:07:12;21.43;;;10.30;;
4583;SDS011;2304;47.606;12.186;2023-11-19T15:12:13;11.23;;;8.70;;
4583;SDS011;2304;47.606;12.186;2023-11-19T15:17:16;8.67;;;7.13;;
4583;SDS011;2304;47.606;12.186;2023-11-19T15:22:19;10.53;;;7.53;;
4583;SDS011;2304;47.606;12.186;2023-11-19T15:27:21;11.57;;;7.77;;
4583;SDS011;2304;47.606;12.186;2023-11-19T15:32:23;14.80;;;9.20;;
4583;SDS011;2304;47.606;12.186;2023-11-19T15:37:26;11.77;;;8.40;;
4583;SDS011;2304;47.606;12.186;2023-11-19T15:42:29;12.60;;;7.90;;
4583;SDS011;2304;47.606;12.186;2023-11-19T15:47:31;13.57;;;9.90;;
4583;SDS011;2304;47.606;12.186;2023-11-19T15:52:34;14.27;;;9.07;;
4583;SDS011;2304;47.606;12.186;2023-11-19T15:57:35;12.00;;;9.40;;
4583;SDS011;2304;47.606;12.186;2023-11-19T16:02:37;17.43;;;10.53;;
4583;SDS011;2304;47.606;12.186;2023-11-19T16:07:40;22.20;;;11.90;;
4583;SDS011;2304;47.606;12.186;2023-11-19T16:12:42;12.60;;;9.03;;
4583;SDS011;2304;47.606;12.186;2023-11-19T16:17:44;7.40;;;6.00;;
4583;SDS011;2304;47.606;12.186;2023-11-19T16:22:47;10.77;;;7.30;;
4583;SDS011;2304;47.606;12.186;2023-11-19T16:27:50;11.07;;;9.23;;
4583;SDS011;2304;47.606;12.186;2023-11-19T16:32:52;20.20;;;11.00;;
4583;SDS011;2304;47.606;12.186;2023-11-19T16:37:59;18.70;;;12.00;;
4583;SDS011;2304;47.606;12.186;2023-11-19T16:43:02;15.33;;;10.93;;
4583;SDS011;2304;47.606;12.186;2023-11-19T16:48:04;13.33;;;11.30;;
4583;SDS011;2304;47.606;12.186;2023-11-19T16:53:08;15.00;;;11.57;;
4583;SDS011;2304;47.606;12.186;2023-11-19T16:58:09;17.67;;;12.20;;
4583;SDS011;2304;47.606;12.186;2023-11-19T17:03:11;17.63;;;12.53;;
4583;SDS011;2304;47.606;12.186;2023-11-19T17:08:14;12.97;;;10.20;;
4583;SDS011;2304;47.606;12.186;2023-11-19T17:13:16;17.43;;;12.90;;
4583;SDS011;2304;47.606;12.186;2023-11-19T17:18:21;15.33;;;12.40;;
4583;SDS011;2304;47.606;12.186;2023-11-19T17:23:25;15.73;;;11.30;;
4583;SDS011;2304;47.606;12.186;2023-11-19T17:28:27;16.57;;;11.90;;
4583;SDS011;2304;47.606;12.186;2023-11-19T17:33:29;15.87;;;12.40;;
4583;SDS011;2304;47.606;12.186;2023-11-19T17:38:32;17.17;;;11.60;;
4583;SDS011;2304;47.606;12.186;2023-11-19T17:43:34;17.03;;;13.47;;
4583;SDS011;2304;47.606;12.186;2023-11-19T17:48:36;18.30;;;13.43;;
4583;SDS011;2304;47.606;12.186;2023-11-19T17:53:39;15.87;;;12.47;;
4583;SDS011;2304;47.606;12.186;2023-11-19T17:58:41;17.13;;;12.03;;
4583;SDS011;2304;47.606;12.186;2023-11-19T18:03:43;15.70;;;11.50;;
4583;SDS011;2304;47.606;12.186;2023-11-19T18:08:46;16.53;;;11.70;;
4583;SDS011;2304;47.606;12.186;2023-11-19T18:13:48;17.80;;;13.53;;
4583;SDS011;2304;47.606;12.186;2023-11-19T18:18:50;18.47;;;14.73;;
4583;SDS011;2304;47.606;12.186;2023-11-19T18:23:53;19.13;;;14.40;;
4583;SDS011;2304;47.606;12.186;2023-11-19T18:28:55;17.50;;;13.60;;
4583;SDS011;2304;47.606;12.186;2023-11-19T18:33:57;18.43;;;13.70;;
4583;SDS011;2304;47.606;12.186;2023-11-19T18:39:00;17.30;;;13.23;;
4583;SDS011;2304;47.606;12.186;2023-11-19T18:44:04;14.70;;;11.10;;
4583;SDS011;2304;47.606;12.186;2023-11-19T18:49:06;16.60;;;12.00;;
4583;SDS011;2304;47.606;12.186;2023-11-19T18:54:10;16.20;;;13.10;;
4583;SDS011;2304;47.606;12.186;2023-11-19T18:59:12;17.10;;;13.13;;
4583;SDS011;2304;47.606;12.186;2023-11-19T19:04:14;14.63;;;10.87;;
4583;SDS011;2304;47.606;12.186;2023-11-19T19:09:17;12.27;;;9.80;;
4583;SDS011;2304;47.606;12.186;2023-11-19T19:14:19;13.37;;;9.97;;
4583;SDS011;2304;47.606;12.186;2023-11-19T19:19:21;20.90;;;12.47;;
4583;SDS011;2304;47.606;12.186;2023-11-19T19:24:24;18.50;;;13.17;;
4583;SDS011;2304;47.606;12.186;2023-11-19T19:29:26;15.70;;;11.10;;
4583;SDS011;2304;47.606;12.186;2023-11-19T19:34:28;12.03;;;8.83;;
4583;SDS011;2304;47.606;12.186;2023-11-19T19:39:31;10.43;;;7.53;;
4583;SDS011;2304;47.606;12.186;2023-11-19T19:44:33;23.93;;;14.53;;
4583;SDS011;2304;47.606;12.186;2023-11-19T19:49:35;22.03;;;17.77;;
4583;SDS011;2304;47.606;12.186;2023-11-19T19:54:38;37.73;;;21.30;;
4583;SDS011;2304;47.606;12.186;2023-11-19T19:59:40;39.80;;;22.57;;
4583;SDS011;2304;47.606;12.186;2023-11-19T20:04:43;29.47;;;19.23;;
4583;SDS011;2304;47.606;12.186;2023-11-19T20:09:46;15.17;;;10.47;;
4583;SDS011;2304;47.606;12.186;2023-11-19T20:14:49;23.13;;;15.33;;
4583;SDS011;2304;47.606;12.186;2023-11-19T20:19:51;30.00;;;18.43;;
4583;SDS011;2304;47.606;12.186;2023-11-19T20:24:54;54.70;;;28.40;;
4583;SDS011;2304;47.606;12.186;2023-11-19T20:29:56;39.33;;;23.53;;
4583;SDS011;2304;47.606;12.186;2023-11-19T20:34:58;19.30;;;14.60;;
4583;SDS011;2304;47.606;12.186;2023-11-19T20:40:01;24.90;;;17.33;;
4583;SDS011;2304;47.606;12.186;2023-11-19T20:45:04;20.20;;;14.43;;
4583;SDS011;2304;47.606;12.186;2023-11-19T20:50:08;18.03;;;11.87;;
4583;SDS011;2304;47.606;12.186;2023-11-19T20:55:12;18.33;;;10.37;;
4583;SDS011;2304;47.606;12.186;2023-11-19T21:00:14;18.10;;;13.83;;
4583;SDS011;2304;47.606;12.186;2023-11-19T21:05:18;18.47;;;13.03;;
4583;SDS011;2304;47.606;12.186;2023-11-19T21:10:21;25.37;;;15.63;;
4583;SDS011;2304;47.606;12.186;2023-11-19T21:15:23;16.23;;;11.60;;
4583;SDS011;2304;47.606;12.186;2023-11-19T21:20:25;18.50;;;13.20;;
4583;SDS011;2304;47.606;12.186;2023-11-19T21:25:28;23.90;;;14.27;;
4583;SDS011;2304;47.606;12.186;2023-11-19T21:30:31;19.30;;;13.63;;
4583;SDS011;2304;47.606;12.186;2023-11-19T21:35:33;14.80;;;12.07;;
4583;SDS011;2304;47.606;12.186;2023-11-19T21:40:38;15.07;;;11.43;;
4583;SDS011;2304;47.606;12.186;2023-11-19T21:45:40;18.43;;;13.60;;
4583;SDS011;2304;47.606;12.186;2023-11-19T21:50:42;16.53;;;11.60;;
4583;SDS011;2304;47.606;12.186;2023-11-19T21:55:47;19.17;;;13.40;;
4583;SDS011;2304;47.606;12.186;2023-11-19T22:00:49;14.50;;;10.23;;
4583;SDS011;2304;47.606;12.186;2023-11-19T22:05:51;19.10;;;13.07;;
4583;SDS011;2304;47.606;12.186;2023-11-19T22:10:54;21.00;;;14.13;;
4583;SDS011;2304;47.606;12.186;2023-11-19T22:15:56;15.87;;;10.87;;
4583;SDS011;2304;47.606;12.186;2023-11-19T22:20:58;16.87;;;12.30;;
4583;SDS011;2304;47.606;12.186;2023-11-19T22:26:02;15.40;;;10.77;;
4583;SDS011;2304;47.606;12.186;2023-11-19T22:31:04;17.10;;;10.77;;
4583;SDS011;2304;47.606;12.186;2023-11-19T22:36:06;19.90;;;12.97;;
4583;SDS011;2304;47.606;12.186;2023-11-19T22:41:11;19.90;;;12.43;;
4583;SDS011;2304;47.606;12.186;2023-11-19T22:46:13;17.27;;;12.10;;
4583;SDS011;2304;47.606;12.186;2023-11-19T22:51:15;19.93;;;14.10;;
4583;SDS011;2304;47.606;12.186;2023-11-19T22:56:18;17.47;;;13.40;;
4583;SDS011;2304;47.606;12.186;2023-11-19T23:01:20;18.77;;;13.20;;
4583;SDS011;2304;47.606;12.186;2023-11-19T23:06:22;20.03;;;13.17;;
4583;SDS011;2304;47.606;12.186;2023-11-19T23:11:25;21.10;;;14.40;;
4583;SDS011;2304;47.606;12.186;2023-11-19T23:16:27;23.07;;;16.07;;
4583;SDS011;2304;47.606;12.186;2023-11-19T23:21:29;26.43;;;17.50;;
4583;SDS011;2304;47.606;12.186;2023-11-19T23:26:32;23.10;;;15.90;;
4583;SDS011;2304;47.606;12.186;2023-11-19T23:31:34;20.53;;;15.30;;
4583;SDS011;2304;47.606;12.186;2023-11-19T23:36:36;23.97;;;16.47;;
4583;SDS011;2304;47.606;12.186;2023-11-19T23:41:39;24.23;;;14.90;;
4583;SDS011;2304;47.606;12.186;2023-11-19T23:46:41;21.10;;;15.00;;
4583;SDS011;2304;47.606;12.186;2023-11-19T23:51:43;28.10;;;16.70;;
4583;SDS011;2304;47.606;12.186;2023-11-19T23:56:46;27.20;;;16.53;;
